Portada
METAR-TAF:

METAR-TAF

Aeroports :

Al-Ula, Aràbia Saudita

latitud: 26-29-00N, longitud: 038-07-01E, altitud: 624 m

Observació

L'informe es va fer fa 3 hores i 3 minuts, a les 20:00 UTC
Vent calma
Temperatura 22°C
Humitat 8%
Pressió 1015 hPa
Visibilitat 10 km o més
sense núvols per sota de 1500 mi sense presència de cumulonimbus.

METAR: OEAO 012000Z 00000KT CAVOK 22/M13 Q1015

Hora: 02:03 (23:03 UTC)

Pronòstic

L'informe es va fer fa 12 hores i 3 minuts, a les 11:00 UTC
Pronòstic vàlid del 01 a les 12 UTC al 02 a les 18 UTC
Vent 18 kt del Oest
Visibilitat: 6000 m
Temporalment
l' 01 a les 12 UTC al 01 a les 18 UTC
Visibilitat: 4000 m
torb alta de pols
Evolucionant progressivament
l' 01 a les 20 UTC al 01 a les 22 UTC
Vent 3 kt amb direcció variable

TAF: OEAO 011100Z 0112/0218 26018KT 6000 NSC TEMPO 0112/0118 4000 BLDU BECMG 0120/0122 VRB03KT

Observacions i pronòstics meteorològics de més de 4000 aeroports (METAR i TAF).

Les estacions disponibles són els punts grocs i vermells al mapa.

Posi el ratolí al punt desitjat per veure el nom de l'estació.

Feu clic per veure les observacions i els pronòstics meteorològics.

Per canviar el mapa: feu clic els botons verds amb una creu de color negre per apropar; al botó verd amb un guió per allunyar la imatge; o en les fletxes verdes per a mapes adjacents.


METAR-TAF: